sensor_id;sensor_type;location;lat;lon;timestamp;pressure;altitude;pressure_sealevel;temperature;humidity
77723;BME280;67811;42.656;23.394;2023-03-30T00:00:31;95582.28;;;5.20;43.88
77723;BME280;67811;42.656;23.394;2023-03-30T00:03:01;95586.03;;;5.17;44.37
77723;BME280;67811;42.656;23.394;2023-03-30T00:05:34;95573.16;;;5.14;44.52
77723;BME280;67811;42.656;23.394;2023-03-30T00:08:05;95587.53;;;5.20;44.34
77723;BME280;67811;42.656;23.394;2023-03-30T00:10:36;95575.22;;;5.20;44.88
77723;BME280;67811;42.656;23.394;2023-03-30T00:13:07;95569.44;;;5.17;44.57
77723;BME280;67811;42.656;23.394;2023-03-30T00:15:38;95567.09;;;5.14;44.75
77723;BME280;67811;42.656;23.394;2023-03-30T00:18:08;95564.31;;;5.15;44.90
77723;BME280;67811;42.656;23.394;2023-03-30T00:20:39;95563.34;;;5.16;45.05
77723;BME280;67811;42.656;23.394;2023-03-30T00:23:09;95560.72;;;5.16;44.97
77723;BME280;67811;42.656;23.394;2023-03-30T00:25:42;95560.84;;;5.15;44.80
77723;BME280;67811;42.656;23.394;2023-03-30T00:28:13;95556.00;;;5.20;44.82
77723;BME280;67811;42.656;23.394;2023-03-30T00:30:44;95559.34;;;5.22;44.36
77723;BME280;67811;42.656;23.394;2023-03-30T00:33:15;95558.38;;;5.23;44.67
77723;BME280;67811;42.656;23.394;2023-03-30T00:35:50;95560.44;;;5.19;44.65
77723;BME280;67811;42.656;23.394;2023-03-30T00:38:21;95561.84;;;5.14;44.63
77723;BME280;67811;42.656;23.394;2023-03-30T00:40:55;95570.28;;;5.17;45.37
77723;BME280;67811;42.656;23.394;2023-03-30T00:43:26;95557.97;;;5.18;45.07
77723;BME280;67811;42.656;23.394;2023-03-30T00:45:57;95561.16;;;5.12;45.84
77723;BME280;67811;42.656;23.394;2023-03-30T00:48:29;95565.84;;;5.08;46.15
77723;BME280;67811;42.656;23.394;2023-03-30T00:51:04;95568.75;;;5.05;46.58
77723;BME280;67811;42.656;23.394;2023-03-30T00:53:38;95562.25;;;4.99;46.99
77723;BME280;67811;42.656;23.394;2023-03-30T00:56:14;95555.50;;;4.97;47.86
77723;BME280;67811;42.656;23.394;2023-03-30T00:58:45;95559.34;;;4.93;48.26
77723;BME280;67811;42.656;23.394;2023-03-30T01:01:16;95569.03;;;4.92;48.44
77723;BME280;67811;42.656;23.394;2023-03-30T01:03:48;95565.84;;;4.89;48.64
77723;BME280;67811;42.656;23.394;2023-03-30T01:06:21;95566.53;;;4.91;48.92
77723;BME280;67811;42.656;23.394;2023-03-30T01:08:53;95564.75;;;4.82;49.16
77723;BME280;67811;42.656;23.394;2023-03-30T01:11:25;95557.97;;;4.79;49.46
77723;BME280;67811;42.656;23.394;2023-03-30T01:14:02;95563.22;;;4.79;49.59
77723;BME280;67811;42.656;23.394;2023-03-30T01:16:39;95567.50;;;4.80;49.67
77723;BME280;67811;42.656;23.394;2023-03-30T01:19:30;95561.69;;;4.76;49.59
77723;BME280;67811;42.656;23.394;2023-03-30T01:22:24;95562.81;;;4.74;50.16
77723;BME280;67811;42.656;23.394;2023-03-30T01:25:32;95564.03;;;4.70;50.19
77723;BME280;67811;42.656;23.394;2023-03-30T01:28:28;95568.22;;;4.72;49.98
77723;BME280;67811;42.656;23.394;2023-03-30T01:31:14;95574.69;;;4.68;50.20
77723;BME280;67811;42.656;23.394;2023-03-30T01:34:15;95575.38;;;4.70;50.31
77723;BME280;67811;42.656;23.394;2023-03-30T01:37:13;95576.50;;;4.68;50.15
77723;BME280;67811;42.656;23.394;2023-03-30T01:39:54;95578.41;;;4.66;49.85
77723;BME280;67811;42.656;23.394;2023-03-30T01:42:31;95577.72;;;4.64;49.58
77723;BME280;67811;42.656;23.394;2023-03-30T01:45:11;95573.97;;;4.66;49.29
77723;BME280;67811;42.656;23.394;2023-03-30T01:47:49;95575.38;;;4.70;48.84
77723;BME280;67811;42.656;23.394;2023-03-30T01:50:24;95577.44;;;4.67;49.15
77723;BME280;67811;42.656;23.394;2023-03-30T01:52:59;95573.69;;;4.60;49.00
77723;BME280;67811;42.656;23.394;2023-03-30T01:55:34;95572.19;;;4.57;49.42
77723;BME280;67811;42.656;23.394;2023-03-30T01:58:10;95561.69;;;4.57;49.50
77723;BME280;67811;42.656;23.394;2023-03-30T02:00:45;95566.53;;;4.52;49.74
77723;BME280;67811;42.656;23.394;2023-03-30T02:03:20;95575.91;;;4.55;49.50
77723;BME280;67811;42.656;23.394;2023-03-30T02:05:54;95576.03;;;4.53;49.61
77723;BME280;67811;42.656;23.394;2023-03-30T02:08:29;95588.19;;;4.54;50.32
77723;BME280;67811;42.656;23.394;2023-03-30T02:11:03;95578.53;;;4.55;49.93
77723;BME280;67811;42.656;23.394;2023-03-30T02:13:35;95567.34;;;4.53;50.13
77723;BME280;67811;42.656;23.394;2023-03-30T02:16:10;95588.19;;;4.54;50.46
77723;BME280;67811;42.656;23.394;2023-03-30T02:18:42;95584.31;;;4.48;50.77
77723;BME280;67811;42.656;23.394;2023-03-30T02:21:12;95579.91;;;4.49;50.62
77723;BME280;67811;42.656;23.394;2023-03-30T02:23:45;95586.13;;;4.48;51.41
77723;BME280;67811;42.656;23.394;2023-03-30T02:26:18;95589.72;;;4.47;51.56
77723;BME280;67811;42.656;23.394;2023-03-30T02:28:49;95588.75;;;4.48;51.52
77723;BME280;67811;42.656;23.394;2023-03-30T02:31:19;95580.88;;;4.48;52.08
77723;BME280;67811;42.656;23.394;2023-03-30T02:34:05;95580.28;;;4.44;51.55
77723;BME280;67811;42.656;23.394;2023-03-30T02:36:49;95578.50;;;4.45;51.82
77723;BME280;67811;42.656;23.394;2023-03-30T02:39:28;95590.09;;;4.42;52.58
77723;BME280;67811;42.656;23.394;2023-03-30T02:42:23;95593.28;;;4.36;52.90
77723;BME280;67811;42.656;23.394;2023-03-30T02:45:08;95593.41;;;4.35;53.45
77723;BME280;67811;42.656;23.394;2023-03-30T02:47:57;95590.78;;;4.35;53.64
77723;BME280;67811;42.656;23.394;2023-03-30T02:50:33;95593.41;;;4.35;53.98
77723;BME280;67811;42.656;23.394;2023-03-30T02:53:10;95605.72;;;4.34;54.97
77723;BME280;67811;42.656;23.394;2023-03-30T02:55:48;95595.47;;;4.31;54.85
77723;BME280;67811;42.656;23.394;2023-03-30T02:58:32;95608.44;;;4.33;55.89
77723;BME280;67811;42.656;23.394;2023-03-30T03:01:09;95596.72;;;4.37;56.20
77723;BME280;67811;42.656;23.394;2023-03-30T03:03:45;95607.63;;;4.32;56.19
77723;BME280;67811;42.656;23.394;2023-03-30T03:06:17;95605.97;;;4.31;56.59
77723;BME280;67811;42.656;23.394;2023-03-30T03:08:48;95609.28;;;4.33;57.34
77723;BME280;67811;42.656;23.394;2023-03-30T03:11:19;95609.41;;;4.32;57.50
77723;BME280;67811;42.656;23.394;2023-03-30T03:13:51;95610.63;;;4.28;57.95
77723;BME280;67811;42.656;23.394;2023-03-30T03:16:21;95612.03;;;4.32;58.32
77723;BME280;67811;42.656;23.394;2023-03-30T03:18:52;95607.19;;;4.27;58.84
77723;BME280;67811;42.656;23.394;2023-03-30T03:21:23;95604.00;;;4.23;58.48
77723;BME280;67811;42.656;23.394;2023-03-30T03:23:53;95611.16;;;4.21;58.95
77723;BME280;67811;42.656;23.394;2023-03-30T03:26:24;95608.28;;;4.25;59.49
77723;BME280;67811;42.656;23.394;2023-03-30T03:28:56;95615.59;;;4.21;59.48
77723;BME280;67811;42.656;23.394;2023-03-30T03:31:26;95620.00;;;4.20;60.15
77723;BME280;67811;42.656;23.394;2023-03-30T03:33:57;95613.34;;;4.16;60.16
77723;BME280;67811;42.656;23.394;2023-03-30T03:36:27;95617.78;;;4.16;60.44
77723;BME280;67811;42.656;23.394;2023-03-30T03:38:58;95614.72;;;4.11;60.64
77723;BME280;67811;42.656;23.394;2023-03-30T03:41:28;95615.44;;;4.13;60.41
77723;BME280;67811;42.656;23.394;2023-03-30T03:44:00;95614.47;;;4.14;61.28
77723;BME280;67811;42.656;23.394;2023-03-30T03:46:31;95627.72;;;4.12;61.14
77723;BME280;67811;42.656;23.394;2023-03-30T03:49:01;95628.53;;;4.13;61.75
77723;BME280;67811;42.656;23.394;2023-03-30T03:51:32;95632.53;;;4.07;62.09
77723;BME280;67811;42.656;23.394;2023-03-30T03:54:03;95639.69;;;4.05;62.59
77723;BME280;67811;42.656;23.394;2023-03-30T03:56:33;95634.00;;;4.00;63.10
77723;BME280;67811;42.656;23.394;2023-03-30T03:59:05;95636.38;;;4.03;63.22
77723;BME280;67811;42.656;23.394;2023-03-30T04:01:36;95642.00;;;3.99;63.35
77723;BME280;67811;42.656;23.394;2023-03-30T04:04:06;95638.16;;;4.03;63.54
77723;BME280;67811;42.656;23.394;2023-03-30T04:06:37;95639.38;;;3.99;64.01
77723;BME280;67811;42.656;23.394;2023-03-30T04:09:07;95635.69;;;4.01;64.04
77723;BME280;67811;42.656;23.394;2023-03-30T04:11:38;95639.22;;;4.00;64.49
77723;BME280;67811;42.656;23.394;2023-03-30T04:14:10;95638.31;;;4.01;64.94
77723;BME280;67811;42.656;23.394;2023-03-30T04:16:40;95634.97;;;3.99;65.34
77723;BME280;67811;42.656;23.394;2023-03-30T04:19:11;95630.69;;;3.98;65.59
77723;BME280;67811;42.656;23.394;2023-03-30T04:21:41;95627.09;;;3.99;65.40
77723;BME280;67811;42.656;23.394;2023-03-30T04:24:12;95634.81;;;4.01;65.36
77723;BME280;67811;42.656;23.394;2023-03-30T04:26:43;95635.69;;;4.01;65.55
77723;BME280;67811;42.656;23.394;2023-03-30T04:29:15;95635.69;;;4.01;65.37
77723;BME280;67811;42.656;23.394;2023-03-30T04:31:45;95639.38;;;3.99;66.01
77723;BME280;67811;42.656;23.394;2023-03-30T04:34:16;95635.69;;;4.01;66.31
77723;BME280;67811;42.656;23.394;2023-03-30T04:36:47;95645.31;;;4.01;66.01
77723;BME280;67811;42.656;23.394;2023-03-30T04:39:17;95638.97;;;4.03;65.81
77723;BME280;67811;42.656;23.394;2023-03-30T04:41:48;95639.28;;;4.10;65.36
77723;BME280;67811;42.656;23.394;2023-03-30T04:44:20;95646.06;;;4.12;65.11
77723;BME280;67811;42.656;23.394;2023-03-30T04:46:51;95645.34;;;4.10;64.61
77723;BME280;67811;42.656;23.394;2023-03-30T04:49:22;95651.03;;;4.15;64.18
77723;BME280;67811;42.656;23.394;2023-03-30T04:51:53;95656.56;;;4.12;64.31
77723;BME280;67811;42.656;23.394;2023-03-30T04:54:23;95643.56;;;4.11;64.70
77723;BME280;67811;42.656;23.394;2023-03-30T04:56:54;95658.09;;;4.15;64.94
77723;BME280;67811;42.656;23.394;2023-03-30T04:59:26;95658.81;;;4.27;64.20
77723;BME280;67811;42.656;23.394;2023-03-30T05:01:56;95656.91;;;4.29;63.90
77723;BME280;67811;42.656;23.394;2023-03-30T05:04:27;95660.47;;;4.28;63.50
77723;BME280;67811;42.656;23.394;2023-03-30T05:06:58;95667.56;;;4.37;64.03
77723;BME280;67811;42.656;23.394;2023-03-30T05:09:28;95656.25;;;4.36;63.63
77723;BME280;67811;42.656;23.394;2023-03-30T05:11:59;95661.06;;;4.31;63.63
77723;BME280;67811;42.656;23.394;2023-03-30T05:14:31;95666.53;;;4.28;63.55
77723;BME280;67811;42.656;23.394;2023-03-30T05:17:02;95654.41;;;4.27;63.41
77723;BME280;67811;42.656;23.394;2023-03-30T05:19:32;95666.03;;;4.34;63.70
77723;BME280;67811;42.656;23.394;2023-03-30T05:22:03;95669.34;;;4.36;63.91
77723;BME280;67811;42.656;23.394;2023-03-30T05:24:33;95664.41;;;4.43;63.52
77723;BME280;67811;42.656;23.394;2023-03-30T05:27:04;95664.41;;;4.43;63.32
77723;BME280;67811;42.656;23.394;2023-03-30T05:29:36;95668.25;;;4.39;63.19
77723;BME280;67811;42.656;23.394;2023-03-30T05:32:07;95662.75;;;4.42;63.69
77723;BME280;67811;42.656;23.394;2023-03-30T05:34:37;95668.00;;;4.42;63.76
77723;BME280;67811;42.656;23.394;2023-03-30T05:37:08;95665.50;;;4.40;63.94
77723;BME280;67811;42.656;23.394;2023-03-30T05:39:38;95656.28;;;4.46;63.95
77723;BME280;67811;42.656;23.394;2023-03-30T05:42:09;95654.91;;;4.52;63.77
77723;BME280;67811;42.656;23.394;2023-03-30T05:44:41;95653.50;;;4.47;64.37
77723;BME280;67811;42.656;23.394;2023-03-30T05:47:12;95664.31;;;4.54;64.44
77723;BME280;67811;42.656;23.394;2023-03-30T05:49:42;95667.63;;;4.56;64.92
77723;BME280;67811;42.656;23.394;2023-03-30T05:52:13;95673.19;;;4.63;64.76
77723;BME280;67811;42.656;23.394;2023-03-30T05:54:43;95672.75;;;4.58;65.21
77723;BME280;67811;42.656;23.394;2023-03-30T05:57:14;95675.78;;;4.53;65.87
77723;BME280;67811;42.656;23.394;2023-03-30T05:59:46;95676.03;;;4.50;66.51
77723;BME280;67811;42.656;23.394;2023-03-30T06:02:16;95684.88;;;4.49;66.69
77723;BME280;67811;42.656;23.394;2023-03-30T06:04:47;95687.88;;;4.44;67.36
77723;BME280;67811;42.656;23.394;2023-03-30T06:07:17;95685.69;;;4.49;67.02
77723;BME280;67811;42.656;23.394;2023-03-30T06:09:48;95691.38;;;4.55;67.09
77723;BME280;67811;42.656;23.394;2023-03-30T06:12:19;95690.25;;;4.47;67.52
77723;BME280;67811;42.656;23.394;2023-03-30T06:14:51;95696.91;;;4.52;67.74
77723;BME280;67811;42.656;23.394;2023-03-30T06:17:21;95699.81;;;4.58;67.45
77723;BME280;67811;42.656;23.394;2023-03-30T06:19:52;95706.56;;;4.51;67.74
77723;BME280;67811;42.656;23.394;2023-03-30T06:22:22;95693.03;;;4.46;67.53
77723;BME280;67811;42.656;23.394;2023-03-30T06:24:53;95698.03;;;4.59;67.36
77723;BME280;67811;42.656;23.394;2023-03-30T06:27:24;95699.88;;;4.68;66.77
77723;BME280;67811;42.656;23.394;2023-03-30T06:29:55;95704.44;;;4.75;66.86
77723;BME280;67811;42.656;23.394;2023-03-30T06:32:26;95707.69;;;4.58;67.13
77723;BME280;67811;42.656;23.394;2023-03-30T06:34:57;95702.16;;;4.61;66.86
77723;BME280;67811;42.656;23.394;2023-03-30T06:37:28;95705.75;;;4.60;66.47
77723;BME280;67811;42.656;23.394;2023-03-30T06:40:00;95703.03;;;4.71;66.70
77723;BME280;67811;42.656;23.394;2023-03-30T06:42:30;95704.44;;;4.75;67.97
77723;BME280;67811;42.656;23.394;2023-03-30T06:45:03;95704.19;;;4.88;67.85
77723;BME280;67811;42.656;23.394;2023-03-30T06:47:33;95711.50;;;4.94;67.37
77723;BME280;67811;42.656;23.394;2023-03-30T06:50:05;95706.72;;;5.09;66.32
77723;BME280;67811;42.656;23.394;2023-03-30T06:52:36;95711.81;;;5.11;65.06
77723;BME280;67811;42.656;23.394;2023-03-30T06:55:07;95716.56;;;5.26;63.83
77723;BME280;67811;42.656;23.394;2023-03-30T06:57:39;95719.59;;;5.32;63.37
77723;BME280;67811;42.656;23.394;2023-03-30T07:00:12;95722.09;;;5.23;63.24
77723;BME280;67811;42.656;23.394;2023-03-30T07:02:43;95724.03;;;5.41;62.84
77723;BME280;67811;42.656;23.394;2023-03-30T07:05:14;95718.50;;;5.53;62.42
77723;BME280;67811;42.656;23.394;2023-03-30T07:07:44;95713.53;;;5.70;61.75
77723;BME280;67811;42.656;23.394;2023-03-30T07:10:15;95717.00;;;5.99;60.88
77723;BME280;67811;42.656;23.394;2023-03-30T07:12:45;95719.56;;;6.28;60.01
77723;BME280;67811;42.656;23.394;2023-03-30T07:15:18;95722.69;;;6.42;59.54
77723;BME280;67811;42.656;23.394;2023-03-30T07:17:48;95728.75;;;6.52;59.13
77723;BME280;67811;42.656;23.394;2023-03-30T07:20:19;95728.75;;;6.52;58.74
77723;BME280;67811;42.656;23.394;2023-03-30T07:22:50;95731.56;;;6.41;58.41
77723;BME280;67811;42.656;23.394;2023-03-30T07:25:20;95723.41;;;6.44;57.41
77723;BME280;67811;42.656;23.394;2023-03-30T07:27:51;95731.91;;;6.65;57.17
77723;BME280;67811;42.656;23.394;2023-03-30T07:30:23;95725.81;;;6.92;56.22
77723;BME280;67811;42.656;23.394;2023-03-30T07:32:54;95726.00;;;7.08;55.92
77723;BME280;67811;42.656;23.394;2023-03-30T07:35:24;95726.94;;;7.35;54.53
77723;BME280;67811;42.656;23.394;2023-03-30T07:37:55;95731.00;;;7.29;55.33
77723;BME280;67811;42.656;23.394;2023-03-30T07:40:25;95729.41;;;7.19;54.61
77723;BME280;67811;42.656;23.394;2023-03-30T07:42:56;95725.19;;;7.53;54.37
77723;BME280;67811;42.656;23.394;2023-03-30T07:45:28;95722.31;;;7.64;53.74
77723;BME280;67811;42.656;23.394;2023-03-30T07:47:58;95722.75;;;7.60;53.18
77723;BME280;67811;42.656;23.394;2023-03-30T07:50:29;95721.91;;;7.95;52.87
77723;BME280;67811;42.656;23.394;2023-03-30T07:53:00;95721.25;;;8.37;51.29
77723;BME280;67811;42.656;23.394;2023-03-30T07:55:30;95713.34;;;8.71;49.76
77723;BME280;67811;42.656;23.394;2023-03-30T07:58:01;95711.91;;;9.27;47.93
77723;BME280;67811;42.656;23.394;2023-03-30T08:00:33;95711.63;;;9.46;47.61
77723;BME280;67811;42.656;23.394;2023-03-30T08:03:04;95708.53;;;10.08;45.98
77723;BME280;67811;42.656;23.394;2023-03-30T08:05:34;95706.25;;;10.85;44.10
77723;BME280;67811;42.656;23.394;2023-03-30T08:08:05;95707.00;;;10.63;44.25
77723;BME280;67811;42.656;23.394;2023-03-30T08:10:35;95712.16;;;11.03;44.58
77723;BME280;67811;42.656;23.394;2023-03-30T08:13:06;95714.31;;;10.20;45.71
77723;BME280;67811;42.656;23.394;2023-03-30T08:15:38;95716.50;;;10.96;44.78
77723;BME280;67811;42.656;23.394;2023-03-30T08:18:08;95710.72;;;11.32;43.52
77723;BME280;67811;42.656;23.394;2023-03-30T08:20:40;95703.31;;;11.50;43.28
77723;BME280;67811;42.656;23.394;2023-03-30T08:23:11;95702.03;;;11.92;41.38
77723;BME280;67811;42.656;23.394;2023-03-30T08:25:41;95687.88;;;12.37;41.28
77723;BME280;67811;42.656;23.394;2023-03-30T08:28:12;95702.91;;;10.91;43.85
77723;BME280;67811;42.656;23.394;2023-03-30T08:30:44;95702.59;;;10.94;44.37
77723;BME280;67811;42.656;23.394;2023-03-30T08:33:15;95694.59;;;11.02;43.27
77723;BME280;67811;42.656;23.394;2023-03-30T08:35:46;95698.00;;;10.80;43.75
77723;BME280;67811;42.656;23.394;2023-03-30T08:38:17;95697.16;;;11.19;43.88
77723;BME280;67811;42.656;23.394;2023-03-30T08:40:48;95692.69;;;11.50;42.60
77723;BME280;67811;42.656;23.394;2023-03-30T08:43:41;95696.84;;;11.22;42.97
77723;BME280;67811;42.656;23.394;2023-03-30T08:46:17;95699.31;;;11.54;41.91
77723;BME280;67811;42.656;23.394;2023-03-30T08:48:50;95698.84;;;11.74;41.71
77723;BME280;67811;42.656;23.394;2023-03-30T08:51:23;95694.88;;;13.27;38.30
77723;BME280;67811;42.656;23.394;2023-03-30T08:53:56;95693.28;;;13.48;37.87
77723;BME280;67811;42.656;23.394;2023-03-30T08:56:29;95695.47;;;13.80;37.85
77723;BME280;67811;42.656;23.394;2023-03-30T08:59:09;95683.34;;;13.78;37.16
77723;BME280;67811;42.656;23.394;2023-03-30T09:01:50;95688.56;;;14.57;36.37
77723;BME280;67811;42.656;23.394;2023-03-30T09:04:26;95673.50;;;15.66;33.47
77723;BME280;67811;42.656;23.394;2023-03-30T09:07:03;95658.69;;;16.96;31.46
77723;BME280;67811;42.656;23.394;2023-03-30T09:09:41;95661.72;;;17.13;30.90
77723;BME280;67811;42.656;23.394;2023-03-30T09:12:18;95641.03;;;17.40;30.45
77723;BME280;67811;42.656;23.394;2023-03-30T09:14:54;95650.94;;;16.42;30.95
77723;BME280;67811;42.656;23.394;2023-03-30T09:17:31;95648.66;;;16.65;31.01
77723;BME280;67811;42.656;23.394;2023-03-30T09:20:05;95642.06;;;16.88;29.72
77723;BME280;67811;42.656;23.394;2023-03-30T09:22:40;95635.88;;;16.94;29.06
77723;BME280;67811;42.656;23.394;2023-03-30T09:25:13;95642.50;;;16.31;29.02
77723;BME280;67811;42.656;23.394;2023-03-30T09:27:55;95641.06;;;16.49;29.11
77723;BME280;67811;42.656;23.394;2023-03-30T09:30:33;95638.19;;;16.24;29.79
77723;BME280;67811;42.656;23.394;2023-03-30T09:33:13;95633.88;;;16.43;29.65
77723;BME280;67811;42.656;23.394;2023-03-30T09:35:58;95628.16;;;17.55;28.18
77723;BME280;67811;42.656;23.394;2023-03-30T09:38:32;95630.00;;;18.75;26.21
77723;BME280;67811;42.656;23.394;2023-03-30T09:41:13;95619.25;;;18.93;27.00
77723;BME280;67811;42.656;23.394;2023-03-30T09:43:49;95621.41;;;18.41;26.53
77723;BME280;67811;42.656;23.394;2023-03-30T09:46:20;95622.72;;;17.30;28.44
77723;BME280;67811;42.656;23.394;2023-03-30T09:48:53;95617.81;;;16.49;29.12
77723;BME280;67811;42.656;23.394;2023-03-30T09:51:25;95609.81;;;16.29;30.06
77723;BME280;67811;42.656;23.394;2023-03-30T09:53:58;95611.66;;;16.02;30.34
77723;BME280;67811;42.656;23.394;2023-03-30T09:56:35;95604.47;;;16.10;29.93
77723;BME280;67811;42.656;23.394;2023-03-30T09:59:19;95605.28;;;15.97;30.42
77723;BME280;67811;42.656;23.394;2023-03-30T10:01:50;95601.63;;;16.04;29.79
77723;BME280;67811;42.656;23.394;2023-03-30T10:04:22;95605.06;;;16.45;29.85
77723;BME280;67811;42.656;23.394;2023-03-30T10:06:53;95596.69;;;15.88;30.54
77723;BME280;67811;42.656;23.394;2023-03-30T10:09:23;95595.00;;;15.80;30.03
77723;BME280;67811;42.656;23.394;2023-03-30T10:11:54;95590.88;;;16.24;28.84
77723;BME280;67811;42.656;23.394;2023-03-30T10:14:29;95588.34;;;16.63;28.28
77723;BME280;67811;42.656;23.394;2023-03-30T10:17:00;95593.59;;;17.47;27.76
77723;BME280;67811;42.656;23.394;2023-03-30T10:19:34;95595.88;;;17.44;27.01
77723;BME280;67811;42.656;23.394;2023-03-30T10:22:13;95599.19;;;16.94;28.18
77723;BME280;67811;42.656;23.394;2023-03-30T10:24:49;95594.56;;;17.21;27.97
77723;BME280;67811;42.656;23.394;2023-03-30T10:27:26;95582.06;;;17.02;27.40
77723;BME280;67811;42.656;23.394;2023-03-30T10:29:56;95584.03;;;16.81;27.97
77723;BME280;67811;42.656;23.394;2023-03-30T10:32:29;95579.34;;;17.85;26.40
77723;BME280;67811;42.656;23.394;2023-03-30T10:35:07;95581.16;;;18.16;25.95
77723;BME280;67811;42.656;23.394;2023-03-30T10:37:39;95573.69;;;18.43;25.88
77723;BME280;67811;42.656;23.394;2023-03-30T10:40:15;95567.34;;;18.37;25.74
77723;BME280;67811;42.656;23.394;2023-03-30T10:42:50;95564.69;;;19.59;24.15
77723;BME280;67811;42.656;23.394;2023-03-30T10:45:27;95559.63;;;20.05;23.50
77723;BME280;67811;42.656;23.394;2023-03-30T10:48:10;95567.50;;;17.99;25.93
77723;BME280;67811;42.656;23.394;2023-03-30T10:50:48;95564.66;;;17.24;26.67
77723;BME280;67811;42.656;23.394;2023-03-30T10:53:32;95564.94;;;16.45;28.51
77723;BME280;67811;42.656;23.394;2023-03-30T10:56:13;95562.09;;;16.20;29.03
77723;BME280;67811;42.656;23.394;2023-03-30T11:01:40;95553.56;;;17.84;26.94
77723;BME280;67811;42.656;23.394;2023-03-30T11:04:17;95542.94;;;17.01;27.59
77723;BME280;67811;42.656;23.394;2023-03-30T11:06:55;95545.31;;;16.64;28.05
77723;BME280;67811;42.656;23.394;2023-03-30T11:09:30;95542.69;;;16.51;28.35
77723;BME280;67811;42.656;23.394;2023-03-30T11:12:04;95532.63;;;16.46;28.14
77723;BME280;67811;42.656;23.394;2023-03-30T11:14:41;95538.03;;;15.47;29.92
77723;BME280;67811;42.656;23.394;2023-03-30T11:17:20;95534.97;;;15.57;29.97
77723;BME280;67811;42.656;23.394;2023-03-30T11:19:55;95536.56;;;15.24;30.06
77723;BME280;67811;42.656;23.394;2023-03-30T11:22:33;95528.00;;;15.75;29.40
77723;BME280;67811;42.656;23.394;2023-03-30T11:25:16;95524.72;;;15.93;28.85
77723;BME280;67811;42.656;23.394;2023-03-30T11:27:53;95522.25;;;15.85;29.62
77723;BME280;67811;42.656;23.394;2023-03-30T11:30:27;95515.66;;;15.88;29.62
77723;BME280;67811;42.656;23.394;2023-03-30T11:33:00;95514.25;;;15.78;29.65
77723;BME280;67811;42.656;23.394;2023-03-30T11:35:35;95508.13;;;16.56;28.20
77723;BME280;67811;42.656;23.394;2023-03-30T11:38:12;95501.66;;;17.47;27.17
77723;BME280;67811;42.656;23.394;2023-03-30T11:40:45;95496.16;;;17.10;27.79
77723;BME280;67811;42.656;23.394;2023-03-30T11:43:18;95489.47;;;18.26;26.31
77723;BME280;67811;42.656;23.394;2023-03-30T11:45:51;95485.97;;;18.43;25.39
77723;BME280;67811;42.656;23.394;2023-03-30T11:48:44;95485.56;;;17.78;26.28
77723;BME280;67811;42.656;23.394;2023-03-30T11:51:44;95480.28;;;17.15;27.24
77723;BME280;67811;42.656;23.394;2023-03-30T11:57:22;95477.00;;;17.38;27.29
77723;BME280;67811;42.656;23.394;2023-03-30T12:00:02;95476.16;;;17.94;26.28
77723;BME280;67811;42.656;23.394;2023-03-30T12:02:44;95471.44;;;17.39;26.55
77723;BME280;67811;42.656;23.394;2023-03-30T12:05:21;95466.19;;;17.51;25.99
77723;BME280;67811;42.656;23.394;2023-03-30T12:08:04;95458.38;;;18.00;25.65
77723;BME280;67811;42.656;23.394;2023-03-30T12:10:40;95454.91;;;17.18;26.58
77723;BME280;67811;42.656;23.394;2023-03-30T12:13:13;95454.16;;;17.35;26.61
77723;BME280;67811;42.656;23.394;2023-03-30T12:15:48;95448.34;;;17.13;26.50
77723;BME280;67811;42.656;23.394;2023-03-30T12:18:27;95439.75;;;17.05;26.83
77723;BME280;67811;42.656;23.394;2023-03-30T12:21:09;95433.16;;;16.63;27.56
77723;BME280;67811;42.656;23.394;2023-03-30T12:23:46;95429.53;;;16.50;27.56
77723;BME280;67811;42.656;23.394;2023-03-30T12:26:25;95429.09;;;16.53;27.61
77723;BME280;67811;42.656;23.394;2023-03-30T12:28:58;95421.41;;;16.70;27.87
77723;BME280;67811;42.656;23.394;2023-03-30T12:32:05;95418.75;;;16.64;27.51
77723;BME280;67811;42.656;23.394;2023-03-30T12:34:39;95426.19;;;16.10;28.12
77723;BME280;67811;42.656;23.394;2023-03-30T12:37:11;95418.94;;;16.24;27.92
77723;BME280;67811;42.656;23.394;2023-03-30T12:39:45;95417.88;;;16.70;27.08
77723;BME280;67811;42.656;23.394;2023-03-30T12:42:21;95408.50;;;16.16;27.25
77723;BME280;67811;42.656;23.394;2023-03-30T12:45:04;95402.66;;;16.32;28.20
77723;BME280;67811;42.656;23.394;2023-03-30T12:50:52;95400.13;;;15.99;28.69
77723;BME280;67811;42.656;23.394;2023-03-30T12:53:50;95387.34;;;16.01;28.09
77723;BME280;67811;42.656;23.394;2023-03-30T12:56:30;95383.22;;;15.98;28.53
77723;BME280;67811;42.656;23.394;2023-03-30T13:02:33;95378.50;;;16.07;29.06
77723;BME280;67811;42.656;23.394;2023-03-30T13:05:16;95380.28;;;16.20;28.27
77723;BME280;67811;42.656;23.394;2023-03-30T13:07:48;95372.41;;;16.31;27.78
77723;BME280;67811;42.656;23.394;2023-03-30T13:10:38;95365.88;;;16.27;27.82
77723;BME280;67811;42.656;23.394;2023-03-30T13:13:43;95364.09;;;16.08;28.02
77723;BME280;67811;42.656;23.394;2023-03-30T13:16:48;95352.09;;;15.52;28.91
77723;BME280;67811;42.656;23.394;2023-03-30T13:19:45;95339.16;;;15.69;28.25
77723;BME280;67811;42.656;23.394;2023-03-30T13:22:23;95340.78;;;15.57;28.92
77723;BME280;67811;42.656;23.394;2023-03-30T13:24:59;95340.97;;;15.75;28.19
77723;BME280;67811;42.656;23.394;2023-03-30T13:27:32;95338.69;;;15.86;28.49
77723;BME280;67811;42.656;23.394;2023-03-30T13:30:09;95335.59;;;15.89;28.52
77723;BME280;67811;42.656;23.394;2023-03-30T13:32:53;95327.69;;;16.07;28.23
77723;BME280;67811;42.656;23.394;2023-03-30T13:35:38;95325.22;;;16.12;27.99
77723;BME280;67811;42.656;23.394;2023-03-30T13:38:33;95312.22;;;15.71;28.85
77723;BME280;67811;42.656;23.394;2023-03-30T13:41:22;95316.72;;;15.70;29.03
77723;BME280;67811;42.656;23.394;2023-03-30T13:44:04;95309.16;;;15.67;29.46
77723;BME280;67811;42.656;23.394;2023-03-30T13:46:43;95307.34;;;15.41;29.37